Mount Hood, OR

10:51 PM PST on February 11, 2016 (GMT -0800)
Parkdale West | | Change Station
CLOSE
Current Station
Personal Weather Station
Location: Mt Hood Parkdale, OR
Elevation: 1473 ft
Nearby Weather Stations

Elev 1473 ft 45.54 °N, 121.62 °W | Updated 1 second ago

Overcast
Overcast
41.0 °F
Feels Like 41 °F
N
0.0
Wind Variable Wind from SSW
Gusts 0.0 mph

Today
High -- | Low -- °F
--% Chance of Precip.
Yesterday
High -- | Low -- °F
Precip. -- in
Pressure 30.24 in
Visibility 2.0 miles
Clouds Overcast 2200 ft
Windchill 41 °F
Dew Point 40 °F
Humidity 97%
Rainfall 0.23 in
Snow Depth Not available.
7:15 AM 5:27 PM
Waxing Crescent, 18% visible
SPECI KDLS 120617Z AUTO 00000KT 2SM BR OVC022 07/06 A3024 RMK AO2 T00670056
Pressure 30.24 in
Visibility 2.0 miles
Clouds Overcast 2200 ft
Windchill 41 °F
Dew Point 40 °F
Humidity 97%
Rainfall 0.23 in
Snow Depth Not available.
7:15 AM 5:27 PM
Waxing Crescent, 18% visible
SPECI KDLS 120617Z AUTO 00000KT 2SM BR OVC022 07/06 A3024 RMK AO2 T00670056

10-Day Weather Forecast

Almanac

Astronomy

Feb. 11, 2016 Rise Set
Actual Time
Civil Twilight
Nautical Twilight
Astronomical Twilight
Moon
Length of Visible Light
Length of Day
Tomorrow will be .
, % of the Moon is Illuminated

Today's Extremes

State Highs State Lows

Community

WunderPhotos

Upload Photos

1,892,276 photos uploaded!

WunderBlog® & News

Nearby

Air Quality

  Air Quality AQ Index Pollutant
Not available.

Snow Depth

Station Depth Elevation

Earthquake Activity

City Distance Mag. Time & Date
Minimum magnitude displayed is 2.5.

Coastal Water Temperatures

Place Temperature

Stations

Nearby Weather Stations

Station Location Temp. Windchill Dew Point Humidity Wind Precip. Elev Updated Type
                   

Watches & Warnings

There are currently no watches in effect.